Time;durP1;ratioP1;P1;durP2;ratioP2;P2;SDS_P1;SDS_P2;PMS_P1;PMS_P2;Temp;Humidity;BMP_temperature;BMP_pressure;BME280_temperature;BME280_humidity;BME280_pressure;Samples;Min_cycle;Max_cycle;Signal;HPM_P1;HPM_P2
2022/04/19 00:00:30;;;;;;;;;;;;;;;-143.90;100.00;54992.09;2087253;28;20435;-66
2022/04/19 00:01:51;;;;;;;;;;;;;;;-143.90;100.00;54992.09;2087636;28;20344;-65
2022/04/19 00:03:12;;;;;;;;;;;;;;;-143.90;100.00;55035.78;2089133;28;19921;-66
2022/04/19 00:04:32;;;;;;;;;;;;;;;-143.90;100.00;54992.09;2089899;28;19966;-64
2022/04/19 00:05:53;;;;;;;;;;;;;;;-143.90;100.00;55015.91;2086604;28;20019;-65
2022/04/19 00:07:13;;;;;;;;;;;;;;;-143.90;100.00;54964.28;2087600;28;20450;-65
2022/04/19 00:08:35;;;;;;;;;;;;;;;-143.90;100.00;54964.28;2086662;28;20303;-64
2022/04/19 00:09:55;;;;;;;;;;;;;;;-143.90;100.00;55004.00;2088303;28;19948;-65
2022/04/19 00:11:16;;;;;;;;;;;;;;;-143.90;100.00;54988.13;2087205;28;19935;-65
2022/04/19 00:12:36;;;;;;;;;;;;;;;-143.90;100.00;54992.09;2089123;28;19956;-65
2022/04/19 00:13:57;;;;;;;;;;;;;;;-143.90;100.00;54966.28;2087484;28;19920;-65
2022/04/19 00:15:18;;;;;;;;;;;;;;;-143.90;100.00;55004.00;2086562;28;19925;-65
2022/04/19 00:16:39;;;;;;;;;;;;;;;-143.90;100.00;55011.94;2088405;28;19920;-64
2022/04/19 00:18:00;;;;;;;;;;;;;;;-143.90;100.00;54992.09;2089019;28;19920;-64
2022/04/19 00:19:21;;;;;;;;;;;;;;;-143.90;100.00;54960.31;2079680;28;20064;-65
2022/04/19 00:20:45;;;;;;;;;;;;;;;-143.90;100.00;54994.06;2083388;28;19925;-64
2022/04/19 00:22:05;;;;;;;;;;;;;;;-143.90;100.00;54972.22;2086727;28;19930;-65
2022/04/19 00:23:26;;;;;;;;;;;;;;;-143.90;100.00;55011.94;2079465;28;19921;-63
2022/04/19 00:24:47;;;;;;;;;;;;;;;-143.90;100.00;54980.19;2084685;28;19928;-65
2022/04/19 00:26:07;;;;;;;;;;;;;;;-143.90;100.00;54992.09;2087164;28;19921;-65
2022/04/19 00:27:28;;;;;;;;;;;;;;;-143.90;100.00;55037.75;2085968;28;19928;-65
2022/04/19 00:28:49;;;;;;;;;;;;;;;-143.90;100.00;54964.28;2087595;28;19927;-65
2022/04/19 00:30:10;;;;;;;;;;;;;;;-143.90;100.00;54980.19;2088639;28;19928;-65
2022/04/19 00:31:30;;;;;;;;;;;;;;;-143.90;100.00;55011.94;2091116;28;20023;-65
2022/04/19 00:32:51;;;;;;;;;;;;;;;-143.90;100.00;54976.19;2085840;28;19924;-65
2022/04/19 00:34:12;;;;;;;;;;;;;;;-143.90;100.00;55015.91;2080550;28;19932;-64
2022/04/19 00:35:32;;;;;;;;;;;;;;;-143.90;100.00;54962.31;2085832;28;19924;-65
2022/04/19 00:36:53;;;;;;;;;;;;;;;-143.90;100.00;54984.16;2089210;28;19928;-65
2022/04/19 00:38:14;;;;;;;;;;;;;;;-143.90;100.00;54988.13;2087757;28;20050;-65
2022/04/19 00:39:35;;;;;;;;;;;;;;;-143.90;100.00;54982.16;2078999;28;19928;-65
2022/04/19 00:40:56;;;;;;;;;;;;;;;-143.90;100.00;55000.03;2084859;28;19921;-64
2022/04/19 00:42:17;;;;;;;;;;;;;;;-143.90;100.00;54998.03;2085940;28;19929;-65
2022/04/19 00:43:38;;;;;;;;;;;;;;;-143.90;100.00;54964.28;2088959;28;19928;-65
2022/04/19 00:44:59;;;;;;;;;;;;;;;-143.90;100.00;54982.16;2089886;28;19982;-64
2022/04/19 00:46:20;;;;;;;;;;;;;;;-143.90;100.00;54952.38;2089798;28;20609;-64
2022/04/19 00:47:41;;;;;;;;;;;;;;;-143.90;100.00;55002.00;2082184;28;19927;-65
2022/04/19 00:49:03;;;;;;;;;;;;;;;-143.90;100.00;55037.75;2079250;28;19920;-64
2022/04/19 00:50:24;;;;;;;;;;;;;;;-143.90;100.00;55007.97;2076050;28;19925;-65
2022/04/19 00:51:45;;;;;;;;;;;;;;;-143.90;100.00;54978.19;2065410;28;19921;-65
2022/04/19 00:53:06;;;;;;;;;;;;;;;-143.90;100.00;54984.16;2072164;28;20735;-65
2022/04/19 00:54:27;;;;;;;;;;;;;;;-143.90;100.00;55004.00;2079435;28;20377;-65
2022/04/19 00:55:48;;;;;;;;;;;;;;;-143.90;100.00;54980.19;2083262;28;19931;-64
2022/04/19 00:57:10;;;;;;;;;;;;;;;-143.90;100.00;54970.25;2072847;28;19921;-64
2022/04/19 00:58:33;;;;;;;;;;;;;;;-143.90;100.00;54984.16;2075483;28;20949;-65
2022/04/19 00:59:54;;;;;;;;;;;;;;;-143.90;100.00;54976.19;2081977;28;19967;-64
2022/04/19 01:01:16;;;;;;;;;;;;;;;-143.90;100.00;55015.91;2081925;28;19921;-63
2022/04/19 01:02:37;;;;;;;;;;;;;;;-143.90;100.00;55025.84;2069816;28;19921;-65
2022/04/19 01:03:59;;;;;;;;;;;;;;;-143.90;100.00;55007.97;2086648;28;19920;-66
2022/04/19 01:05:21;;;;;;;;;;;;;;;-143.90;100.00;55004.00;2080085;28;20385;-64
2022/04/19 01:06:42;;;;;;;;;;;;;;;-143.90;100.00;54996.06;2077572;28;19928;-64
2022/04/19 01:08:03;;;;;;;;;;;;;;;-143.90;100.00;54958.34;2078639;28;19920;-65
2022/04/19 01:09:27;;;;;;;;;;;;;;;-143.90;100.00;55006.00;2080759;28;19921;-65
2022/04/19 01:10:48;;;;;;;;;;;;;;;-143.90;100.00;54976.19;2074259;28;20401;-65
2022/04/19 01:14:02;;;;;;;;;;;;;;;-143.90;100.00;55013.94;2080543;28;20494;-65
2022/04/19 01:15:23;;;;;;;;;;;;;;;-143.90;100.00;55004.00;2078589;28;19928;-65
2022/04/19 01:16:55;;;;;;;;;;;;;;;-143.90;100.00;54996.06;2079157;28;21554;-65
2022/04/19 01:18:22;;;;;;;;;;;;;;;-143.90;100.00;54982.16;2081440;28;19925;-66
2022/04/19 01:19:44;;;;;;;;;;;;;;;-143.90;100.00;54968.25;2087134;28;19924;-65
2022/04/19 01:21:10;;;;;;;;;;;;;;;-143.90;100.00;54996.06;2078862;28;19924;-65
2022/04/19 01:22:34;;;;;;;;;;;;;;;-143.90;100.00;54988.13;2079874;28;19928;-64
2022/04/19 01:23:55;;;;;;;;;;;;;;;-143.90;100.00;54992.09;2083601;28;20017;-65
2022/04/19 01:25:18;;;;;;;;;;;;;;;-143.90;100.00;54938.47;2079503;28;19921;-65
2022/04/19 01:26:41;;;;;;;;;;;;;;;-143.90;100.00;54970.25;2087852;28;20020;-65
2022/04/19 01:28:01;;;;;;;;;;;;;;;-143.90;100.00;55015.91;2088936;28;19931;-64
2022/04/19 01:29:23;;;;;;;;;;;;;;;-143.90;100.00;54984.16;2087892;28;19921;-64
2022/04/19 01:30:44;;;;;;;;;;;;;;;-143.90;100.00;54968.25;2082201;28;19929;-65
2022/04/19 01:32:08;;;;;;;;;;;;;;;-143.90;100.00;55023.84;2077932;28;19943;-65
2022/04/19 01:33:29;;;;;;;;;;;;;;;-143.90;100.00;54996.06;2078434;28;19925;-63
2022/04/19 01:34:50;;;;;;;;;;;;;;;-143.90;100.00;54996.06;2087398;28;19927;-65
2022/04/19 01:36:14;;;;;;;;;;;;;;;-143.90;100.00;54980.19;2083493;28;19933;-64
2022/04/19 01:37:39;;;;;;;;;;;;;;;-143.90;100.00;54956.34;2080412;28;19921;-63
2022/04/19 01:39:00;;;;;;;;;;;;;;;-143.90;100.00;54980.19;2084651;28;19935;-65
2022/04/19 01:40:21;;;;;;;;;;;;;;;-143.90;100.00;54968.25;2081324;28;19935;-65
2022/04/19 01:41:45;;;;;;;;;;;;;;;-143.90;100.00;54980.19;2078024;28;19921;-67
2022/04/19 01:43:06;;;;;;;;;;;;;;;-143.90;100.00;54966.28;2078520;28;19921;-67
2022/04/19 01:44:35;;;;;;;;;;;;;;;-143.90;100.00;54960.31;2070769;28;19967;-65
2022/04/19 01:45:56;;;;;;;;;;;;;;;-143.90;100.00;54994.06;2086021;28;19931;-67
2022/04/19 01:47:18;;;;;;;;;;;;;;;-143.90;100.00;55023.84;2089179;28;19926;-64
2022/04/19 01:48:43;;;;;;;;;;;;;;;-143.90;100.00;55031.78;2079713;28;19975;-66
2022/04/19 01:50:04;;;;;;;;;;;;;;;-143.90;100.00;54960.31;2081021;28;20780;-65
2022/04/19 01:51:24;;;;;;;;;;;;;;;-143.90;100.00;55039.75;2086623;28;19932;-65
2022/04/19 01:52:46;;;;;;;;;;;;;;;-143.90;100.00;54976.19;2081061;28;19960;-65
2022/04/19 01:54:14;;;;;;;;;;;;;;;-143.90;100.00;54984.16;2077737;28;19921;-65
2022/04/19 01:55:35;;;;;;;;;;;;;;;-143.90;100.00;54970.25;2080204;28;19959;-65
2022/04/19 01:57:02;;;;;;;;;;;;;;;-143.90;100.00;54984.16;2082263;28;19933;-65
2022/04/19 01:58:40;;;;;;;;;;;;;;;-143.90;100.00;54984.16;2079911;28;20063;-65
2022/04/19 02:00:04;;;;;;;;;;;;;;;-143.90;100.00;55000.03;2074709;28;19925;-65
2022/04/19 02:01:39;;;;;;;;;;;;;;;-143.90;100.00;54998.03;2072972;28;20635;-64
2022/04/19 02:02:59;;;;;;;;;;;;;;;-143.90;100.00;54964.28;2085942;28;19927;-65
2022/04/19 02:04:20;;;;;;;;;;;;;;;-143.90;100.00;54984.16;2081640;28;20075;-64
2022/04/19 02:05:42;;;;;;;;;;;;;;;-143.90;100.00;54984.16;2078620;28;19925;-64
2022/04/19 02:07:06;;;;;;;;;;;;;;;-143.90;100.00;54992.09;2077941;28;20056;-65
2022/04/19 02:08:27;;;;;;;;;;;;;;;-143.90;100.00;54988.13;2085429;28;19920;-65
2022/04/19 02:09:48;;;;;;;;;;;;;;;-143.90;100.00;55002.00;2081114;28;19928;-65
2022/04/19 02:11:09;;;;;;;;;;;;;;;-143.90;100.00;54984.16;2080303;28;19950;-64
2022/04/19 02:12:31;;;;;;;;;;;;;;;-143.90;100.00;55007.97;2081988;28;20036;-65
2022/04/19 02:14:12;;;;;;;;;;;;;;;-143.90;100.00;54986.13;2089435;28;19925;-65
2022/04/19 02:15:37;;;;;;;;;;;;;;;-143.90;100.00;55009.97;2082860;28;19932;-63
2022/04/19 02:17:09;;;;;;;;;;;;;;;-143.90;100.00;54996.06;2088879;28;19970;-65
2022/04/19 02:18:29;;;;;;;;;;;;;;;-143.90;100.00;54972.22;2081699;28;20517;-65
2022/04/19 02:20:00;;;;;;;;;;;;;;;-143.90;100.00;55000.03;2087157;28;19932;-64
2022/04/19 02:21:21;;;;;;;;;;;;;;;-143.90;100.00;54996.06;2080192;28;19921;-65
2022/04/19 02:22:42;;;;;;;;;;;;;;;-143.90;100.00;54982.16;2081031;28;20544;-65
2022/04/19 02:24:03;;;;;;;;;;;;;;;-143.90;100.00;54984.16;2079916;28;19955;-65
2022/04/19 02:25:24;;;;;;;;;;;;;;;-143.90;100.00;55011.94;2080412;28;19971;-65
2022/04/19 02:26:46;;;;;;;;;;;;;;;-143.90;100.00;54984.16;2081017;28;19925;-65
2022/04/19 02:28:07;;;;;;;;;;;;;;;-143.90;100.00;54964.28;2080519;28;19924;-65
2022/04/19 02:29:29;;;;;;;;;;;;;;;-143.90;100.00;55011.94;2088104;28;19920;-64
2022/04/19 02:30:50;;;;;;;;;;;;;;;-143.90;100.00;54988.13;2080537;28;20055;-63
2022/04/19 02:32:18;;;;;;;;;;;;;;;-143.90;100.00;54976.19;2084895;28;20329;-64
2022/04/19 02:33:38;;;;;;;;;;;;;;;-143.90;100.00;55002.00;2089617;28;20016;-65
2022/04/19 02:34:59;;;;;;;;;;;;;;;-143.90;100.00;54996.06;2081930;28;19959;-65
2022/04/19 02:36:21;;;;;;;;;;;;;;;-143.90;100.00;54976.19;2079570;28;19925;-65
2022/04/19 02:37:48;;;;;;;;;;;;;;;-143.90;100.00;54996.06;2079344;28;19913;-64
2022/04/19 02:39:09;;;;;;;;;;;;;;;-143.90;100.00;54986.13;2077941;28;19963;-65
2022/04/19 02:40:30;;;;;;;;;;;;;;;-143.90;100.00;54952.38;2082302;28;19931;-65
2022/04/19 02:41:55;;;;;;;;;;;;;;;-143.90;100.00;54996.06;2083025;28;20408;-64
2022/04/19 02:43:17;;;;;;;;;;;;;;;-143.90;100.00;55027.81;2088823;28;20034;-64
2022/04/19 02:44:40;;;;;;;;;;;;;;;-143.90;100.00;54936.50;2091264;28;20029;-65
2022/04/19 02:46:05;;;;;;;;;;;;;;;-143.90;100.00;54996.06;2088573;28;20423;-64
2022/04/19 02:47:31;;;;;;;;;;;;;;;-143.90;100.00;54992.09;2094991;28;19927;-65
2022/04/19 02:48:52;;;;;;;;;;;;;;;-143.90;100.00;54984.16;2088534;28;19931;-66
2022/04/19 02:50:16;;;;;;;;;;;;;;;-143.90;100.00;54984.16;2088346;28;19927;-64
2022/04/19 02:51:36;;;;;;;;;;;;;;;-143.90;100.00;54992.09;2088252;28;20385;-65
2022/04/19 02:52:57;;;;;;;;;;;;;;;-143.90;100.00;55000.03;2091853;28;19920;-64
2022/04/19 02:54:18;;;;;;;;;;;;;;;-143.90;100.00;54972.22;2089065;28;19952;-65
2022/04/19 02:55:40;;;;;;;;;;;;;;;-143.90;100.00;55011.94;2088660;28;19978;-65
2022/04/19 02:57:01;;;;;;;;;;;;;;;-143.90;100.00;55004.00;2088083;28;19927;-65
2022/04/19 02:58:25;;;;;;;;;;;;;;;-143.90;100.00;54976.19;2089138;28;19927;-64
2022/04/19 02:59:46;;;;;;;;;;;;;;;-143.90;100.00;55011.94;2089333;28;20479;-64
2022/04/19 03:01:07;;;;;;;;;;;;;;;-143.90;100.00;54980.19;2090590;28;19921;-65
2022/04/19 03:02:27;;;;;;;;;;;;;;;-143.90;100.00;54964.28;2088521;28;19931;-65
2022/04/19 03:03:48;;;;;;;;;;;;;;;-143.90;100.00;54986.13;2087993;28;19920;-65
2022/04/19 03:05:11;;;;;;;;;;;;;;;-143.90;100.00;54964.28;2087595;28;19921;-65
2022/04/19 03:06:32;;;;;;;;;;;;;;;-143.90;100.00;54978.19;2095230;28;20033;-65
2022/04/19 03:07:53;;;;;;;;;;;;;;;-143.90;100.00;54978.19;2088733;28;19921;-65
2022/04/19 03:09:13;;;;;;;;;;;;;;;-143.90;100.00;54988.13;2094436;28;19920;-64
2022/04/19 03:10:34;;;;;;;;;;;;;;;-143.90;100.00;54992.09;2089886;28;19929;-64
2022/04/19 03:11:56;;;;;;;;;;;;;;;-143.90;100.00;54976.19;2088979;28;19931;-65
2022/04/19 03:13:17;;;;;;;;;;;;;;;-143.90;100.00;54968.25;2087634;28;19927;-64
2022/04/19 03:14:38;;;;;;;;;;;;;;;-143.90;100.00;54970.25;2087221;28;19931;-65
2022/04/19 03:15:58;;;;;;;;;;;;;;;-143.90;100.00;55004.00;2088543;28;19928;-65
2022/04/19 03:17:21;;;;;;;;;;;;;;;-143.90;100.00;54988.13;2094012;28;19966;-64
2022/04/19 03:18:42;;;;;;;;;;;;;;;-143.90;100.00;54982.16;2089340;28;19920;-65
2022/04/19 03:20:03;;;;;;;;;;;;;;;-143.90;100.00;54986.13;2086475;28;20381;-65
2022/04/19 03:21:24;;;;;;;;;;;;;;;-143.90;100.00;54976.19;2085711;28;19920;-65
2022/04/19 03:27:50;;;;;;;;;;;;;;;-143.90;100.00;55004.00;2088678;28;19971;-65
2022/04/19 03:29:14;;;;;;;;;;;;;;;-143.90;100.00;54984.16;2087091;28;19924;-64
2022/04/19 03:30:35;;;;;;;;;;;;;;;-143.90;100.00;55079.44;2090753;28;20038;-63
2022/04/19 03:31:56;;;;;;;;;;;;;;;-143.90;100.00;55043.72;2088522;28;20717;-64
2022/04/19 03:33:18;;;;;;;;;;;;;;;-143.90;100.00;54980.19;2093901;28;19951;-65
2022/04/19 03:34:39;;;;;;;;;;;;;;;-143.90;100.00;54996.06;2096247;28;19920;-64
2022/04/19 03:36:02;;;;;;;;;;;;;;;-143.90;100.00;55006.00;2088176;28;20331;-65
2022/04/19 03:37:23;;;;;;;;;;;;;;;-143.90;100.00;54980.19;2087601;28;19967;-65
2022/04/19 03:38:44;;;;;;;;;;;;;;;-143.90;100.00;54984.16;2084479;28;20027;-66
2022/04/19 03:40:06;;;;;;;;;;;;;;;-143.90;100.00;54960.31;2087724;28;19925;-64
2022/04/19 03:41:26;;;;;;;;;;;;;;;-143.90;100.00;54998.03;2094642;28;19920;-65
2022/04/19 03:42:47;;;;;;;;;;;;;;;-143.90;100.00;54978.19;2098398;28;20007;-65
2022/04/19 03:44:08;;;;;;;;;;;;;;;-143.90;100.00;54966.28;2088820;28;20383;-65
2022/04/19 03:45:29;;;;;;;;;;;;;;;-143.90;100.00;54988.13;2087753;28;19921;-65
2022/04/19 03:47:08;;;;;;;;;;;;;;;-143.90;100.00;55011.94;2084767;28;20009;-63
2022/04/19 03:48:29;;;;;;;;;;;;;;;-143.90;100.00;55007.97;2085780;28;20006;-64
2022/04/19 03:49:50;;;;;;;;;;;;;;;-143.90;100.00;55007.97;2092699;28;19920;-65
2022/04/19 03:51:11;;;;;;;;;;;;;;;-143.90;100.00;54966.28;2088540;28;19960;-65
2022/04/19 03:52:32;;;;;;;;;;;;;;;-143.90;100.00;55004.00;2089979;28;19921;-65
2022/04/19 03:53:53;;;;;;;;;;;;;;;-143.90;100.00;55027.81;2086456;28;20007;-65
2022/04/19 03:55:14;;;;;;;;;;;;;;;-143.90;100.00;54950.38;2086474;28;19929;-65
2022/04/19 03:56:35;;;;;;;;;;;;;;;-143.90;100.00;54964.28;2085400;28;19924;-63
2022/04/19 03:57:56;;;;;;;;;;;;;;;-143.90;100.00;54978.19;2087021;28;19970;-63
2022/04/19 03:59:16;;;;;;;;;;;;;;;-143.90;100.00;54992.09;2084223;28;19931;-64
2022/04/19 04:00:37;;;;;;;;;;;;;;;-143.90;100.00;54954.38;2086246;28;19931;-65
2022/04/19 04:01:58;;;;;;;;;;;;;;;-143.90;100.00;54968.25;2084142;28;19920;-64
2022/04/19 04:03:19;;;;;;;;;;;;;;;-143.90;100.00;54964.28;2093358;28;19916;-64
2022/04/19 04:04:40;;;;;;;;;;;;;;;-143.90;100.00;54984.16;2085688;28;19920;-64
2022/04/19 04:06:00;;;;;;;;;;;;;;;-143.90;100.00;54980.19;2087589;28;19922;-65
2022/04/19 04:07:21;;;;;;;;;;;;;;;-143.90;100.00;54988.13;2085856;28;20470;-70
2022/04/19 04:08:42;;;;;;;;;;;;;;;-143.90;100.00;54984.16;2083636;28;20026;-64
2022/04/19 04:10:03;;;;;;;;;;;;;;;-143.90;100.00;54988.13;2084162;28;20010;-64
2022/04/19 04:11:24;;;;;;;;;;;;;;;-143.90;100.00;54998.03;2084708;28;19925;-65
2022/04/19 04:12:57;;;;;;;;;;;;;;;-143.90;100.00;54960.31;2089628;28;20418;-65
2022/04/19 04:14:18;;;;;;;;;;;;;;;-143.90;100.00;54982.16;2090952;28;19920;-65
2022/04/19 04:15:39;;;;;;;;;;;;;;;-143.90;100.00;54962.31;2084411;28;19931;-65
2022/04/19 04:16:59;;;;;;;;;;;;;;;-143.90;100.00;54984.16;2084914;28;19943;-64
2022/04/19 04:18:20;;;;;;;;;;;;;;;-143.90;100.00;55007.97;2087306;28;19920;-65
2022/04/19 04:19:43;;;;;;;;;;;;;;;-143.90;100.00;54984.16;2085303;28;19952;-64
2022/04/19 04:21:06;;;;;;;;;;;;;;;-143.90;100.00;54992.09;2085092;28;19945;-65
2022/04/19 04:22:27;;;;;;;;;;;;;;;-143.90;100.00;54948.41;2084649;28;20046;-66
2022/04/19 04:23:49;;;;;;;;;;;;;;;-143.90;100.00;55015.91;2086134;28;19920;-65
2022/04/19 04:25:12;;;;;;;;;;;;;;;-143.90;100.00;54968.25;2084606;28;20380;-65
2022/04/19 04:26:33;;;;;;;;;;;;;;;-143.90;100.00;54990.09;2093799;28;19920;-63
2022/04/19 04:27:53;;;;;;;;;;;;;;;-143.90;100.00;55000.03;2087581;28;19958;-65
2022/04/19 04:29:15;;;;;;;;;;;;;;;-143.90;100.00;54968.25;2091138;28;19920;-65
2022/04/19 04:30:37;;;;;;;;;;;;;;;-143.90;100.00;54966.28;2086922;28;20062;-64
2022/04/19 04:31:58;;;;;;;;;;;;;;;-143.90;100.00;54992.09;2087121;28;19964;-64
2022/04/19 04:33:19;;;;;;;;;;;;;;;-143.90;100.00;54980.19;2093307;28;19920;-64
2022/04/19 04:34:40;;;;;;;;;;;;;;;-143.90;100.00;54972.22;2096021;28;20763;-64
2022/04/19 04:36:02;;;;;;;;;;;;;;;-143.90;100.00;54980.19;2087453;28;19932;-64
2022/04/19 04:37:23;;;;;;;;;;;;;;;-143.90;100.00;54960.31;2084778;28;19932;-65
2022/04/19 04:38:50;;;;;;;;;;;;;;;-143.90;100.00;54962.31;2085200;28;19927;-65
2022/04/19 04:40:20;;;;;;;;;;;;;;;-143.90;100.00;54980.19;2094906;28;20846;-65
2022/04/19 04:41:47;;;;;;;;;;;;;;;-143.90;100.00;54964.28;2080741;28;19920;-65
2022/04/19 04:43:08;;;;;;;;;;;;;;;-143.90;100.00;54996.06;2086803;28;19920;-64
2022/04/19 04:44:29;;;;;;;;;;;;;;;-143.90;100.00;55007.97;2085825;28;20500;-65
2022/04/19 04:49:35;;;;;;;;;;;;;;;-143.90;100.00;54998.03;2092285;28;19943;-65
2022/04/19 04:50:50;;;;;;;;;;;;;;;-143.90;100.00;54972.22;2086421;28;20028;-64
2022/04/19 04:52:13;;;;;;;;;;;;;;;-143.90;100.00;54976.19;2085034;28;19924;-65
2022/04/19 04:53:34;;;;;;;;;;;;;;;-143.90;100.00;54956.34;2086627;28;19924;-65
2022/04/19 04:55:05;;;;;;;;;;;;;;;-143.90;100.00;55059.59;2086559;28;19931;-65
2022/04/19 04:56:28;;;;;;;;;;;;;;;-143.90;100.00;55000.03;2084623;28;19942;-65
2022/04/19 04:57:48;;;;;;;;;;;;;;;-143.90;100.00;54988.13;2086170;28;19956;-65
2022/04/19 04:59:09;;;;;;;;;;;;;;;-143.90;100.00;54964.28;2084957;28;20265;-65
2022/04/19 05:00:30;;;;;;;;;;;;;;;-143.90;100.00;54996.06;2093343;28;19956;-65
2022/04/19 05:01:54;;;;;;;;;;;;;;;-143.90;100.00;54984.16;2087157;28;20297;-65
2022/04/19 05:03:15;;;;;;;;;;;;;;;-143.90;100.00;54960.31;2087373;28;19928;-66
2022/04/19 05:04:37;;;;;;;;;;;;;;;-143.90;100.00;54994.06;2085335;28;20505;-65
2022/04/19 05:05:58;;;;;;;;;;;;;;;-143.90;100.00;54976.19;2085318;28;19956;-66
2022/04/19 05:07:19;;;;;;;;;;;;;;;-143.90;100.00;54964.28;2093833;28;20007;-65
2022/04/19 05:08:44;;;;;;;;;;;;;;;-143.90;100.00;54972.22;2088414;28;20543;-65
2022/04/19 05:10:05;;;;;;;;;;;;;;;-143.90;100.00;54988.13;2088545;28;19924;-66
2022/04/19 05:11:28;;;;;;;;;;;;;;;-143.90;100.00;54950.38;2087869;28;20105;-64
2022/04/19 05:12:49;;;;;;;;;;;;;;;-143.90;100.00;54976.19;2085164;28;19924;-65
2022/04/19 05:14:16;;;;;;;;;;;;;;;-143.90;100.00;54968.25;2084442;28;19973;-66
2022/04/19 05:15:37;;;;;;;;;;;;;;;-143.90;100.00;54970.25;2084346;28;20024;-66
2022/04/19 05:16:58;;;;;;;;;;;;;;;-143.90;100.00;54984.16;2091573;28;19948;-65
2022/04/19 05:18:19;;;;;;;;;;;;;;;-143.90;100.00;54964.28;2087850;28;19972;-66
2022/04/19 05:19:41;;;;;;;;;;;;;;;-143.90;100.00;54972.22;2088145;28;19959;-66
2022/04/19 05:21:05;;;;;;;;;;;;;;;-143.90;100.00;54968.25;2083653;28;19943;-66
2022/04/19 05:22:26;;;;;;;;;;;;;;;-143.90;100.00;55006.00;2086746;28;19920;-66
2022/04/19 05:23:48;;;;;;;;;;;;;;;-143.90;100.00;54996.06;2085047;28;19974;-65
2022/04/19 05:25:14;;;;;;;;;;;;;;;-143.90;100.00;54976.19;2092181;28;19978;-65
2022/04/19 05:26:36;;;;;;;;;;;;;;;-143.90;100.00;54982.16;2090544;28;19920;-64
2022/04/19 05:27:56;;;;;;;;;;;;;;;-143.90;100.00;54944.44;2091150;28;19924;-65
2022/04/19 05:29:17;;;;;;;;;;;;;;;-143.90;100.00;54934.50;2087154;28;19920;-65
2022/04/19 05:30:39;;;;;;;;;;;;;;;-143.90;96.10;54944.44;2087872;28;20043;-66
2022/04/19 05:32:00;;;;;;;;;;;;;;;-143.90;90.96;54944.44;2084307;28;19920;-63
2022/04/19 05:33:20;;;;;;;;;;;;;;;-143.90;87.90;54938.47;2092648;28;19950;-63
2022/04/19 05:34:42;;;;;;;;;;;;;;;-143.90;85.24;54972.22;2087866;28;19920;-62
2022/04/19 05:36:03;;;;;;;;;;;;;;;-143.90;82.03;54952.38;2085283;28;19925;-63
2022/04/19 05:37:26;;;;;;;;;;;;;;;-143.90;80.23;54956.34;2085035;28;20055;-65
2022/04/19 05:38:52;;;;;;;;;;;;;;;-143.90;80.34;54924.59;2083648;28;19920;-64
2022/04/19 05:40:14;;;;;;;;;;;;;;;-143.90;78.12;54948.41;2085724;28;19928;-64
2022/04/19 05:41:37;;;;;;;;;;;;;;;-143.90;76.26;54926.56;2085485;28;20660;-64
2022/04/19 05:42:59;;;;;;;;;;;;;;;-143.90;73.07;54956.34;2085032;28;19920;-64
2022/04/19 05:44:21;;;;;;;;;;;;;;;-143.90;73.50;54892.81;2085233;28;19924;-64
2022/04/19 05:45:42;;;;;;;;;;;;;;;-143.90;71.71;54956.34;2085180;28;19920;-64
2022/04/19 05:47:04;;;;;;;;;;;;;;;-143.90;70.09;54924.59;2086880;28;20496;-65
2022/04/19 05:48:25;;;;;;;;;;;;;;;-143.90;69.14;54960.31;2092651;28;19920;-64
2022/04/19 05:49:46;;;;;;;;;;;;;;;-143.90;68.55;54906.72;2087787;28;20406;-64
2022/04/19 05:51:07;;;;;;;;;;;;;;;-143.90;67.27;54952.38;2084828;28;19969;-65
2022/04/19 05:52:28;;;;;;;;;;;;;;;-143.90;67.96;54926.56;2085583;28;20548;-65
2022/04/19 05:53:49;;;;;;;;;;;;;;;-143.90;66.62;54938.47;2083086;28;19920;-65
2022/04/19 05:55:10;;;;;;;;;;;;;;;-143.90;66.91;54904.72;2084574;28;19923;-65
2022/04/19 05:56:33;;;;;;;;;;;;;;;-143.90;67.00;54952.38;2091737;28;20382;-64
2022/04/19 05:57:55;;;;;;;;;;;;;;;-143.90;67.16;54952.38;2096199;28;19983;-65
2022/04/19 05:59:16;;;;;;;;;;;;;;;-143.90;66.96;54936.50;2089040;28;19921;-65
2022/04/19 06:00:37;;;;;;;;;;;;;;;-143.90;66.76;54924.59;2086671;28;19925;-65
2022/04/19 06:05:19;;;;;;;;;;;;;;;-143.90;63.90;54904.72;2096587;28;19920;-66
2022/04/19 06:06:40;;;;;;;;;;;;;;;-143.90;62.98;54934.50;2092533;28;19920;-65
2022/04/19 06:08:01;;;;;;;;;;;;;;;-143.90;62.41;54936.50;2088409;28;19928;-66
2022/04/19 06:09:22;;;;;;;;;;;;;;;-143.90;61.36;54870.97;2086287;28;19988;-65
2022/04/19 06:10:43;;;;;;;;;;;;;;;-143.90;61.16;54950.38;2088887;28;19925;-65
2022/04/19 06:12:04;;;;;;;;;;;;;;;-143.90;60.24;54924.59;2094316;28;19982;-66
2022/04/19 06:13:29;;;;;;;;;;;;;;;-143.90;59.79;54896.78;2089453;28;20337;-65
2022/04/19 06:14:51;;;;;;;;;;;;;;;-143.90;58.62;54910.69;2086676;28;19943;-65
2022/04/19 06:16:15;;;;;;;;;;;;;;;-143.90;58.14;54888.84;2085082;28;19930;-66
2022/04/19 06:17:41;;;;;;;;;;;;;;;-143.90;57.95;54869.00;2089536;28;20011;-65
2022/04/19 06:19:16;;;;;;;;;;;;;;;-143.90;57.17;54886.84;2095026;28;19927;-64
2022/04/19 06:20:37;;;;;;;;;;;;;;;-143.90;57.34;54910.69;2089100;28;19954;-66
2022/04/19 06:21:58;;;;;;;;;;;;;;;-143.90;57.07;54865.00;2087384;28;19935;-65
2022/04/19 06:23:19;;;;;;;;;;;;;;;-143.90;56.75;54898.78;2094480;28;20468;-65
2022/04/19 06:24:40;;;;;;;;;;;;;;;-143.90;56.45;54888.84;2090288;28;19921;-65
2022/04/19 06:26:00;;;;;;;;;;;;;;;-143.90;56.66;54865.00;2096772;28;20526;-65
2022/04/19 06:27:24;;;;;;;;;;;;;;;-143.90;56.00;54880.91;2087491;28;20040;-65
2022/04/19 06:28:45;;;;;;;;;;;;;;;-143.90;55.52;54888.84;2093903;28;19924;-65
2022/04/19 06:30:14;;;;;;;;;;;;;;;-143.90;56.45;54900.75;2096751;28;20358;-65
2022/04/19 06:31:37;;;;;;;;;;;;;;;-143.90;56.75;54876.94;2089663;28;19923;-66
2022/04/19 06:33:04;;;;;;;;;;;;;;;-143.90;56.48;54892.81;2087863;28;19924;-66
2022/04/19 06:34:25;;;;;;;;;;;;;;;-143.90;56.63;54920.59;2094633;28;19920;-65
2022/04/19 06:35:54;;;;;;;;;;;;;;;-143.90;55.96;54894.78;2088006;28;19936;-64
2022/04/19 06:37:14;;;;;;;;;;;;;;;-143.90;55.92;54884.88;2086088;28;19920;-66
2022/04/19 06:38:39;;;;;;;;;;;;;;;-143.90;55.48;54892.81;2084463;28;19930;-65
2022/04/19 06:40:00;;;;;;;;;;;;;;;-143.90;55.36;54869.00;2095000;28;19924;-63
2022/04/19 06:41:21;;;;;;;;;;;;;;;-143.90;55.00;54855.09;2090085;28;20568;-63
2022/04/19 06:42:44;;;;;;;;;;;;;;;-143.90;54.67;54912.66;2086470;28;19917;-63
2022/04/19 06:44:14;;;;;;;;;;;;;;;-143.90;54.49;54900.75;2096794;28;19924;-63
2022/04/19 06:45:34;;;;;;;;;;;;;;;-143.90;54.12;54912.66;2088874;28;20300;-63
2022/04/19 06:47:16;;;;;;;;;;;;;;;-143.90;54.77;54900.75;2087874;28;19970;-63
2022/04/19 06:48:37;;;;;;;;;;;;;;;-143.90;54.44;54880.91;2086070;28;19923;-63
2022/04/19 06:49:58;;;;;;;;;;;;;;;-143.90;54.19;54882.88;2087273;28;19978;-63
2022/04/19 06:51:20;;;;;;;;;;;;;;;-143.90;53.92;54896.78;2085793;28;19927;-63
2022/04/19 06:52:41;;;;;;;;;;;;;;;-143.90;54.34;54900.75;2086698;28;19921;-63
2022/04/19 06:54:21;;;;;;;;;;;;;;;-143.90;53.65;54869.00;2098265;28;19920;-64
2022/04/19 06:55:46;;;;;;;;;;;;;;;-143.90;53.38;54896.78;2092103;28;19924;-63
2022/04/19 06:57:07;;;;;;;;;;;;;;;-143.90;53.71;54910.69;2087854;28;19920;-63
2022/04/19 06:58:28;;;;;;;;;;;;;;;-143.90;52.86;54837.22;2085501;28;20752;-63
2022/04/19 06:59:49;;;;;;;;;;;;;;;-143.90;52.76;54867.00;2086224;28;20490;-62
2022/04/19 07:01:12;;;;;;;;;;;;;;;-143.90;53.14;54904.72;2085183;28;20013;-63
2022/04/19 07:02:34;;;;;;;;;;;;;;;-143.90;52.49;54900.75;2087462;28;20031;-63
2022/04/19 07:04:18;;;;;;;;;;;;;;;-143.90;52.11;54861.03;2091584;28;19928;-64
2022/04/19 07:05:45;;;;;;;;;;;;;;;-143.90;51.90;54880.91;2096747;28;19916;-64
2022/04/19 07:07:06;;;;;;;;;;;;;;;-143.90;51.89;54882.88;2096897;28;20027;-64
2022/04/19 07:08:27;;;;;;;;;;;;;;;-143.90;51.67;54880.91;2088796;28;19975;-64